Time;durP1;ratioP1;P1;durP2;ratioP2;P2;SDS_P1;SDS_P2;PMS_P1;PMS_P2;Temp;Humidity;BMP_temperature;BMP_pressure;BME280_temperature;BME280_humidity;BME280_pressure;Samples;Min_cycle;Max_cycle;Signal;HPM_P1;HPM_P2
2022/04/06 00:02:59;;;;;;;9.70;8.70;;;21.00;66.10;;;;;;6258852;27;90002;-69
2022/04/06 00:06:02;;;;;;;9.18;8.27;;;21.00;66.10;;;;;;6258497;27;87062;-70
2022/04/06 00:09:04;;;;;;;9.20;8.30;;;20.90;66.00;;;;;;6260032;27;89432;-69
2022/04/06 00:12:08;;;;;;;9.10;8.20;;;21.00;66.10;;;;;;6257400;28;89082;-70
2022/04/06 00:15:12;;;;;;;9.50;8.60;;;20.90;66.10;;;;;;6259201;27;87951;-69
2022/04/06 00:18:14;;;;;;;9.85;8.85;;;20.90;66.00;;;;;;6259484;27;89903;-69
2022/04/06 00:21:18;;;;;;;9.48;8.57;;;20.90;66.00;;;;;;6258160;27;87936;-69
2022/04/06 00:24:19;;;;;;;9.35;8.45;;;20.90;66.00;;;;;;6252509;27;87078;-69
2022/04/06 00:27:21;;;;;;;8.90;8.00;;;20.90;66.00;;;;;;6250401;27;89155;-69
2022/04/06 00:30:24;;;;;;;9.48;8.57;;;20.90;66.00;;;;;;6259166;27;89097;-69
2022/04/06 00:33:26;;;;;;;9.50;8.60;;;20.90;66.00;;;;;;6256828;27;90007;-69
2022/04/06 00:36:29;;;;;;;9.95;8.95;;;20.90;66.00;;;;;;6258271;27;89205;-69
2022/04/06 00:39:31;;;;;;;9.70;8.80;;;20.90;66.00;;;;;;6258059;27;87954;-69
2022/04/06 00:42:33;;;;;;;9.70;8.70;;;20.90;66.10;;;;;;6256628;27;88987;-70
2022/04/06 00:45:38;;;;;;;9.30;8.40;;;20.90;66.10;;;;;;6255991;27;89551;-69
2022/04/06 00:48:40;;;;;;;9.60;8.60;;;20.90;66.10;;;;;;6257933;27;89231;-69
2022/04/06 00:51:46;;;;;;;9.45;8.55;;;20.90;66.10;;;;;;6248504;27;89026;-70
2022/04/06 00:54:49;;;;;;;9.27;8.38;;;20.90;66.10;;;;;;6257810;27;88393;-69
2022/04/06 00:57:52;;;;;;;9.18;8.27;;;20.90;66.10;;;;;;6257925;27;89054;-69
2022/04/06 01:00:54;;;;;;;9.38;8.48;;;20.90;66.10;;;;;;6255791;27;89656;-69
2022/04/06 01:03:56;;;;;;;9.45;8.55;;;20.90;66.10;;;;;;6256719;27;90087;-69
2022/04/06 01:06:59;;;;;;;9.23;8.32;;;20.90;66.10;;;;;;6258758;27;88114;-70
2022/04/06 01:10:01;;;;;;;9.48;8.57;;;20.90;66.10;;;;;;6245021;27;89124;-70
2022/04/06 01:13:04;;;;;;;8.65;7.85;;;20.80;66.10;;;;;;6247634;27;89060;-69
2022/04/06 01:16:06;;;;;;;8.80;7.93;;;20.90;66.20;;;;;;6254149;27;88070;-70
2022/04/06 01:19:09;;;;;;;8.90;8.00;;;20.90;66.30;;;;;;6258627;27;89361;-70
2022/04/06 01:22:14;;;;;;;9.27;8.38;;;20.80;66.10;;;;;;6244313;27;89433;-70
2022/04/06 01:25:16;;;;;;;8.63;7.82;;;20.80;66.10;;;;;;6258663;27;88568;-70
2022/04/06 01:28:18;;;;;;;8.50;7.70;;;20.90;66.10;;;;;;6257756;27;89021;-69
2022/04/06 01:31:19;;;;;;;8.68;7.88;;;20.80;66.10;;;;;;6256094;27;89374;-70
2022/04/06 01:34:22;;;;;;;8.45;7.65;;;20.90;66.10;;;;;;6255685;27;89963;-69
2022/04/06 01:37:26;;;;;;;8.93;8.13;;;20.90;66.10;;;;;;6252106;27;89116;-70
2022/04/06 01:40:28;;;;;;;9.20;8.30;;;20.80;66.10;;;;;;6240680;28;89032;-69
2022/04/06 01:43:30;;;;;;;8.38;7.57;;;20.80;66.10;;;;;;6258080;27;89215;-69
2022/04/06 01:46:33;;;;;;;8.50;7.70;;;20.80;66.10;;;;;;6254792;27;89037;-70
2022/04/06 01:52:57;;;;;;;8.32;7.53;;;20.80;67.00;;;;;;6247400;28;87346;-69
2022/04/06 01:55:59;;;;;;;8.32;7.53;;;20.80;66.10;;;;;;6253998;27;88322;-69
2022/04/06 01:59:01;;;;;;;8.27;7.47;;;20.80;66.10;;;;;;6255689;27;88980;-70
2022/04/06 02:02:05;;;;;;;8.10;7.30;;;20.80;66.10;;;;;;6255776;27;88909;-70
2022/04/06 02:05:08;;;;;;;8.20;7.40;;;20.80;66.20;;;;;;6253067;27;88871;-70
2022/04/06 02:08:11;;;;;;;8.18;7.40;;;20.80;66.10;;;;;;6248225;27;89091;-69
2022/04/06 02:11:13;;;;;;;8.02;7.22;;;20.80;66.20;;;;;;6255597;27;89098;-69
2022/04/06 02:14:16;;;;;;;8.27;7.47;;;20.80;66.20;;;;;;6257764;27;89055;-70
2022/04/06 02:17:18;;;;;;;8.07;7.28;;;20.80;66.20;;;;;;6255988;28;89206;-69
2022/04/06 02:20:20;;;;;;;7.90;7.10;;;20.80;66.20;;;;;;6257187;27;89406;-70
2022/04/06 02:23:23;;;;;;;8.02;7.22;;;20.80;66.30;;;;;;6256858;27;87950;-69
2022/04/06 02:26:27;;;;;;;7.47;6.78;;;20.80;66.20;;;;;;6254812;27;88391;-69
2022/04/06 02:29:29;;;;;;;7.53;6.75;;;20.80;66.20;;;;;;6247173;27;88612;-70
2022/04/06 02:32:31;;;;;;;6.90;6.22;;;20.70;66.50;;;;;;6249727;27;90181;-70
2022/04/06 02:35:33;;;;;;;7.38;6.68;;;20.80;66.20;;;;;;6252943;27;89951;-70
2022/04/06 02:38:38;;;;;;;7.65;6.95;;;20.80;66.20;;;;;;6251331;27;89053;-70
2022/04/06 02:41:41;;;;;;;7.53;6.82;;;20.80;66.10;;;;;;6255326;27;89438;-70
2022/04/06 02:44:43;;;;;;;7.65;6.95;;;20.80;66.20;;;;;;6254138;27;87903;-70
2022/04/06 02:47:45;;;;;;;7.20;6.50;;;20.70;66.10;;;;;;6259974;27;89601;-70
2022/04/06 02:50:47;;;;;;;7.30;6.60;;;20.80;66.20;;;;;;6259955;27;89599;-70
2022/04/06 02:53:50;;;;;;;7.57;6.88;;;20.70;66.10;;;;;;6249910;27;88943;-70
2022/04/06 02:56:52;;;;;;;7.13;6.47;;;20.70;66.10;;;;;;6259504;27;88336;-70
2022/04/06 02:59:54;;;;;;;6.80;6.20;;;20.70;66.20;;;;;;6260979;27;89097;-71
2022/04/06 03:02:56;;;;;;;6.85;6.25;;;20.70;66.20;;;;;;6250269;27;89424;-70
2022/04/06 03:05:58;;;;;;;7.05;6.35;;;20.70;66.20;;;;;;6259716;27;90066;-70
2022/04/06 03:09:01;;;;;;;7.10;6.40;;;20.70;66.20;;;;;;6252118;28;89125;-70
2022/04/06 03:12:05;;;;;;;6.30;5.70;;;20.70;66.30;;;;;;6260530;27;89039;-70
2022/04/06 03:15:08;;;;;;;6.75;6.15;;;20.70;66.30;;;;;;6259391;27;89217;-70
2022/04/06 03:18:11;;;;;;;6.82;6.13;;;20.70;66.20;;;;;;6261888;27;89182;-69
2022/04/06 03:21:13;;;;;;;6.35;5.75;;;20.70;66.30;;;;;;6259060;27;89534;-69
2022/04/06 03:24:16;;;;;;;6.72;6.13;;;20.70;66.20;;;;;;6258769;27;90655;-69
2022/04/06 03:27:18;;;;;;;6.22;5.63;;;20.70;66.30;;;;;;6250039;27;88697;-69
2022/04/06 03:30:20;;;;;;;6.35;5.75;;;20.70;66.30;;;;;;6255975;27;89094;-70
2022/04/06 03:33:22;;;;;;;6.00;5.47;;;20.70;66.30;;;;;;6259917;27;89378;-69
2022/04/06 03:36:24;;;;;;;5.90;5.40;;;20.70;66.30;;;;;;6259940;27;89706;-69
2022/04/06 03:39:28;;;;;;;6.57;5.97;;;20.70;66.30;;;;;;6259592;27;89144;-70
2022/04/06 03:42:30;;;;;;;6.00;5.50;;;20.70;66.20;;;;;;6254269;27;89191;-69
2022/04/06 03:45:32;;;;;;;5.68;5.18;;;20.70;66.30;;;;;;6249300;27;89135;-69
2022/04/06 03:48:34;;;;;;;5.95;5.45;;;20.70;66.20;;;;;;6257730;27;89034;-69
2022/04/06 03:51:36;;;;;;;5.35;4.85;;;20.70;66.20;;;;;;6258045;27;89068;-69
2022/04/06 03:54:39;;;;;;;5.45;4.95;;;20.70;66.10;;;;;;6258331;27;88124;-69
2022/04/06 03:57:41;;;;;;;6.18;5.57;;;20.70;66.10;;;;;;6258261;27;87625;-69
2022/04/06 04:00:43;;;;;;;5.72;5.22;;;20.70;66.10;;;;;;6258270;27;89145;-69
2022/04/06 04:03:45;;;;;;;5.20;4.70;;;20.70;66.10;;;;;;6260620;27;89013;-70
2022/04/06 04:06:48;;;;;;;5.40;4.90;;;20.70;66.10;;;;;;6259171;27;88894;-70
2022/04/06 04:09:51;;;;;;;5.68;5.18;;;20.70;66.10;;;;;;6259064;27;89165;-69
2022/04/06 04:12:53;;;;;;;5.63;5.13;;;20.70;66.00;;;;;;6257701;27;89125;-70
2022/04/06 04:15:55;;;;;;;5.47;4.97;;;20.80;66.10;;;;;;6257874;27;89044;-69
2022/04/06 04:18:57;;;;;;;5.97;5.38;;;20.80;66.10;;;;;;6258051;28;89085;-69
2022/04/06 04:21:59;;;;;;;5.18;4.72;;;20.80;66.10;;;;;;6253944;27;89118;-69
2022/04/06 04:25:21;;;;;;;5.55;5.05;;;20.80;66.10;;;;;;6253850;28;89541;-70
2022/04/06 04:28:23;;;;;;;5.40;4.90;;;20.80;66.10;;;;;;6257891;28;88775;-69
2022/04/06 04:31:25;;;;;;;5.30;4.80;;;20.80;66.00;;;;;;6260595;27;89063;-70
2022/04/06 04:34:27;;;;;;;5.20;4.70;;;20.80;66.10;;;;;;6259249;28;87984;-69
2022/04/06 04:37:29;;;;;;;4.97;4.50;;;20.80;66.00;;;;;;6248323;28;89970;-69
2022/04/06 04:40:32;;;;;;;5.10;4.63;;;20.80;66.00;;;;;;6249188;27;89091;-69
2022/04/06 04:43:35;;;;;;;5.50;5.00;;;20.80;66.00;;;;;;6257439;27;89042;-69
2022/04/06 04:46:37;;;;;;;5.50;5.00;;;20.80;66.00;;;;;;6245165;27;89148;-70
2022/04/06 04:49:39;;;;;;;4.60;4.20;;;20.80;66.10;;;;;;6258323;27;89072;-69
2022/04/06 04:52:41;;;;;;;4.85;4.35;;;20.90;66.10;;;;;;6257791;27;89173;-69
2022/04/06 04:55:44;;;;;;;4.63;4.22;;;20.90;66.00;;;;;;6256808;27;89060;-69
2022/04/06 04:58:46;;;;;;;4.70;4.30;;;20.90;66.00;;;;;;6246910;27;88343;-69
2022/04/06 05:01:48;;;;;;;4.93;4.43;;;20.90;66.00;;;;;;6256915;27;88969;-69
2022/04/06 05:04:50;;;;;;;4.93;4.50;;;20.90;66.00;;;;;;6256474;27;88003;-69
2022/04/06 05:07:53;;;;;;;4.45;4.05;;;20.90;66.00;;;;;;6248604;27;90321;-69
2022/04/06 05:10:56;;;;;;;4.75;4.25;;;20.90;66.00;;;;;;6255251;27;88916;-69
2022/04/06 05:13:58;;;;;;;4.72;4.32;;;20.90;66.00;;;;;;6251010;27;89050;-68
2022/04/06 05:17:01;;;;;;;4.57;4.18;;;20.90;66.00;;;;;;6238328;27;89242;-69
2022/04/06 05:20:03;;;;;;;4.18;3.78;;;20.90;66.00;;;;;;6258144;27;89058;-70
2022/04/06 05:23:05;;;;;;;4.40;4.00;;;20.90;66.00;;;;;;6257650;27;89045;-69
2022/04/06 05:26:09;;;;;;;4.50;4.10;;;20.90;66.00;;;;;;6255675;27;89465;-69
2022/04/06 05:29:11;;;;;;;4.13;3.72;;;20.90;66.00;;;;;;6245909;27;88087;-69
2022/04/06 05:32:13;;;;;;;4.38;3.97;;;20.90;65.90;;;;;;6257085;27;89064;-69
2022/04/06 05:35:15;;;;;;;4.00;3.70;;;21.00;66.00;;;;;;6256614;27;91086;-69
2022/04/06 05:38:17;;;;;;;4.10;3.70;;;20.90;65.90;;;;;;6255620;27;90128;-70
2022/04/06 05:41:20;;;;;;;4.20;3.80;;;21.00;66.00;;;;;;6255691;27;88979;-70
2022/04/06 05:44:22;;;;;;;3.95;3.60;;;21.00;66.00;;;;;;6251823;27;88976;-69
2022/04/06 05:47:26;;;;;;;3.92;3.63;;;21.00;66.00;;;;;;6255543;27;88549;-70
2022/04/06 05:50:28;;;;;;;4.30;3.78;;;21.00;66.00;;;;;;6258696;27;89999;-70
2022/04/06 05:53:30;;;;;;;4.10;3.80;;;21.00;66.00;;;;;;6257558;27;89059;-69
2022/04/06 05:56:33;;;;;;;3.72;3.42;;;21.00;66.00;;;;;;6257981;27;89092;-69
2022/04/06 05:59:36;;;;;;;3.70;3.40;;;21.00;66.00;;;;;;6256198;27;87195;-69
2022/04/06 06:02:38;;;;;;;3.90;3.60;;;21.00;65.90;;;;;;6257583;27;89247;-69
2022/04/06 06:05:40;;;;;;;4.13;3.72;;;21.00;65.90;;;;;;6255464;27;89104;-70
2022/04/06 06:08:42;;;;;;;3.80;3.50;;;21.00;65.90;;;;;;6257679;27;89940;-69
2022/04/06 06:11:46;;;;;;;3.83;3.53;;;21.00;66.00;;;;;;6256963;27;89098;-69
2022/04/06 06:14:48;;;;;;;3.80;3.50;;;21.10;66.00;;;;;;6255283;27;89113;-69
2022/04/06 06:17:50;;;;;;;3.90;3.50;;;21.10;66.00;;;;;;6256140;27;88582;-69
2022/04/06 06:20:52;;;;;;;3.55;3.25;;;21.10;66.00;;;;;;6257893;27;89061;-69
2022/04/06 06:23:54;;;;;;;3.60;3.30;;;21.00;65.90;;;;;;6256347;27;89040;-70
2022/04/06 06:26:57;;;;;;;3.78;3.45;;;21.00;65.90;;;;;;6243119;27;89079;-69
2022/04/06 06:29:59;;;;;;;3.67;3.38;;;21.10;66.00;;;;;;6255254;27;88688;-68
2022/04/06 06:33:02;;;;;;;3.88;3.58;;;21.00;66.00;;;;;;6255924;27;89068;-70
2022/04/06 06:36:04;;;;;;;3.50;3.20;;;21.10;66.00;;;;;;6257327;27;89160;-69
2022/04/06 06:39:06;;;;;;;3.55;3.25;;;21.10;66.00;;;;;;6253781;27;89967;-69
2022/04/06 06:42:10;;;;;;;3.50;3.20;;;21.00;66.00;;;;;;6257714;27;87094;-69
2022/04/06 06:45:12;;;;;;;3.53;3.22;;;21.10;66.00;;;;;;6255556;27;89016;-69
2022/04/06 06:48:14;;;;;;;3.60;3.30;;;21.00;66.00;;;;;;6255722;27;89006;-69
2022/04/06 06:51:18;;;;;;;3.50;3.20;;;21.10;66.00;;;;;;6248553;27;89014;-69
2022/04/06 06:54:20;;;;;;;3.67;3.38;;;21.10;66.00;;;;;;6248978;27;89428;-69
2022/04/06 06:57:23;;;;;;;3.25;2.95;;;21.10;66.00;;;;;;6254698;28;87760;-69
2022/04/06 07:00:25;;;;;;;3.33;3.03;;;21.10;66.00;;;;;;6257495;27;88353;-69
2022/04/06 07:03:27;;;;;;;3.38;3.08;;;21.10;66.00;;;;;;6254698;28;88006;-70
2022/04/06 07:06:29;;;;;;;3.25;2.95;;;21.10;65.90;;;;;;6256119;28;89565;-69
2022/04/06 07:09:31;;;;;;;3.60;3.30;;;21.10;66.00;;;;;;6242124;27;90079;-69
2022/04/06 07:12:34;;;;;;;3.33;3.03;;;21.10;66.00;;;;;;6241692;27;89336;-70
2022/04/06 07:15:37;;;;;;;3.25;2.95;;;21.10;66.00;;;;;;6255564;27;89165;-69
2022/04/06 07:18:39;;;;;;;3.40;3.10;;;21.10;66.00;;;;;;6254719;27;89209;-70
2022/04/06 07:21:40;;;;;;;2.90;2.60;;;21.10;66.10;;;;;;6256606;27;89128;-69
2022/04/06 07:24:42;;;;;;;3.25;2.95;;;21.10;66.00;;;;;;6255858;27;89100;-70
2022/04/06 07:27:46;;;;;;;3.38;2.97;;;21.10;66.00;;;;;;6254059;27;88930;-70
2022/04/06 07:30:48;;;;;;;3.33;2.90;;;21.10;66.10;;;;;;6260156;27;88403;-70
2022/04/06 07:33:51;;;;;;;3.15;2.83;;;21.10;66.00;;;;;;6259156;27;89070;-70
2022/04/06 07:36:52;;;;;;;3.83;3.40;;;21.10;67.00;;;;;;6246343;27;89525;-70
2022/04/06 07:39:54;;;;;;;3.40;3.10;;;21.10;66.00;;;;;;6244670;27;89977;-69
2022/04/06 07:42:59;;;;;;;3.00;2.70;;;21.10;66.00;;;;;;6257968;27;89096;-70
2022/04/06 07:46:01;;;;;;;3.10;2.80;;;21.10;66.10;;;;;;6259684;27;89447;-69
2022/04/06 07:49:03;;;;;;;3.22;2.92;;;21.10;66.00;;;;;;6257888;28;89022;-70
2022/04/06 07:52:05;;;;;;;2.83;2.63;;;21.10;66.10;;;;;;6259662;27;89056;-69
2022/04/06 07:55:08;;;;;;;3.17;2.88;;;21.10;66.10;;;;;;6257223;27;89056;-70
2022/04/06 07:58:12;;;;;;;3.40;3.00;;;21.20;66.10;;;;;;6259866;27;89163;-69
2022/04/06 08:01:14;;;;;;;3.30;2.70;;;21.20;66.10;;;;;;6258260;27;88270;-70
2022/04/06 08:04:16;;;;;;;3.20;2.90;;;21.20;66.40;;;;;;6260148;27;91177;-70
2022/04/06 08:07:18;;;;;;;2.85;2.65;;;21.20;66.00;;;;;;6254246;27;89071;-69
2022/04/06 08:10:22;;;;;;;3.20;2.80;;;21.20;66.10;;;;;;6258117;27;90269;-69
2022/04/06 08:13:25;;;;;;;3.00;2.70;;;21.20;66.10;;;;;;6258032;27;88191;-70
2022/04/06 08:16:28;;;;;;;3.22;2.95;;;21.20;66.10;;;;;;6258404;27;89135;-70
2022/04/06 08:19:30;;;;;;;2.90;2.65;;;21.20;66.10;;;;;;6257586;27;89155;-71
2022/04/06 08:22:32;;;;;;;2.80;2.60;;;21.20;66.10;;;;;;6258813;27;89435;-70
2022/04/06 08:25:34;;;;;;;2.97;2.67;;;21.20;66.10;;;;;;6258999;27;89454;-71
2022/04/06 08:28:40;;;;;;;2.80;2.60;;;21.20;66.10;;;;;;6259512;27;89047;-69
2022/04/06 08:31:42;;;;;;;2.80;2.60;;;21.20;66.10;;;;;;6247739;27;88280;-70
2022/04/06 08:34:44;;;;;;;2.88;2.67;;;21.20;66.10;;;;;;6258590;27;88966;-70
2022/04/06 08:37:46;;;;;;;2.80;2.60;;;21.20;66.20;;;;;;6256729;27;88882;-69
2022/04/06 08:40:49;;;;;;;3.00;2.70;;;21.20;66.10;;;;;;6257611;27;89963;-70
2022/04/06 08:43:52;;;;;;;2.78;2.58;;;21.20;66.10;;;;;;6257501;27;89012;-70
2022/04/06 08:47:00;;;;;;;2.97;2.55;;;21.20;66.10;;;;;;6258872;27;89058;-70
2022/04/06 08:50:03;;;;;;;3.00;2.75;;;21.20;66.10;;;;;;6258764;27;89522;-70
2022/04/06 08:53:08;;;;;;;2.70;2.50;;;21.20;66.10;;;;;;6257461;27;89220;-70
2022/04/06 08:56:12;;;;;;;2.72;2.53;;;21.20;66.10;;;;;;6258060;28;89132;-70
2022/04/06 08:59:15;;;;;;;2.90;2.60;;;21.20;66.20;;;;;;6256687;27;89466;-71
2022/04/06 09:02:19;;;;;;;2.90;2.60;;;21.20;66.10;;;;;;6258521;27;88375;-70
2022/04/06 09:05:22;;;;;;;2.60;2.40;;;21.20;66.10;;;;;;6257097;27;89025;-71
2022/04/06 09:08:35;;;;;;;3.13;2.60;;;21.30;66.10;;;;;;6247571;28;87669;-71
2022/04/06 09:11:44;;;;;;;2.65;2.45;;;21.30;66.20;;;;;;6255905;27;90362;-71
2022/04/06 09:14:48;;;;;;;2.70;2.50;;;21.30;66.20;;;;;;6256772;27;89089;-70
2022/04/06 09:17:52;;;;;;;2.90;2.60;;;21.30;66.20;;;;;;6257052;27;89037;-70
2022/04/06 09:21:00;;;;;;;3.15;2.33;;;21.30;66.30;;;;;;6258021;27;89073;-71
2022/04/06 09:24:02;;;;;;;2.83;2.40;;;21.30;66.20;;;;;;6245689;27;89026;-70
2022/04/06 09:27:05;;;;;;;2.63;2.42;;;21.30;66.20;;;;;;6257465;27;89268;-70
2022/04/06 09:30:10;;;;;;;2.72;2.40;;;21.30;66.30;;;;;;6257908;27;89049;-70
2022/04/06 09:33:16;;;;;;;2.53;2.22;;;21.30;66.20;;;;;;6259151;27;88755;-70
2022/04/06 09:36:19;;;;;;;2.53;2.33;;;21.30;66.20;;;;;;6258293;27;87881;-71
2022/04/06 09:39:41;;;;;;;2.55;2.35;;;21.30;66.20;;;;;;6244049;28;89158;-70
2022/04/06 09:42:51;;;;;;;2.50;2.30;;;21.30;66.30;;;;;;6256904;27;88914;-70
2022/04/06 09:49:18;;;;;;;2.50;2.30;;;21.40;66.30;;;;;;6246753;28;87341;-70
2022/04/06 09:52:20;;;;;;;2.35;2.15;;;21.40;66.40;;;;;;6243643;27;89077;-70
2022/04/06 09:55:24;;;;;;;2.40;2.20;;;21.40;66.30;;;;;;6255949;27;89062;-71
2022/04/06 09:58:28;;;;;;;2.50;2.30;;;21.40;66.30;;;;;;6234339;27;89152;-70
2022/04/06 10:01:34;;;;;;;2.60;2.40;;;21.40;66.20;;;;;;6254434;27;89244;-70
2022/04/06 10:04:36;;;;;;;2.47;2.17;;;21.30;66.20;;;;;;6257192;27;88351;-70
2022/04/06 10:07:39;;;;;;;3.30;2.35;;;21.40;66.30;;;;;;6256462;27;89012;-70
2022/04/06 10:10:42;;;;;;;2.38;2.17;;;21.40;66.20;;;;;;6255049;27;89013;-70
2022/04/06 10:13:45;;;;;;;2.50;2.30;;;21.40;66.20;;;;;;6250771;27;89959;-69
2022/04/06 10:16:49;;;;;;;2.45;2.25;;;21.40;66.30;;;;;;6245567;27;89385;-69
2022/04/06 10:20:02;;;;;;;2.45;2.25;;;21.40;66.20;;;;;;6247676;28;89059;-70
2022/04/06 10:23:14;;;;;;;2.35;2.15;;;21.40;66.30;;;;;;6257245;27;88963;-69
2022/04/06 10:26:32;;;;;;;2.30;2.10;;;21.40;66.30;;;;;;6256652;27;89153;-70
2022/04/06 10:30:12;;;;;;;2.47;2.22;;;21.40;66.30;;;;;;6255432;28;89088;-70
2022/04/06 10:33:22;;;;;;;2.72;2.45;;;21.30;66.30;;;;;;6243832;27;89284;-70
2022/04/06 10:36:28;;;;;;;2.30;2.10;;;21.40;66.40;;;;;;6248759;27;87203;-69
2022/04/06 10:39:30;;;;;;;2.30;2.10;;;21.40;66.40;;;;;;6249838;27;89179;-69
2022/04/06 10:42:34;;;;;;;2.30;2.10;;;21.40;66.40;;;;;;6249178;27;87926;-71
2022/04/06 10:45:37;;;;;;;2.42;2.22;;;21.40;66.40;;;;;;6241767;28;88962;-70
2022/04/06 10:48:56;;;;;;;2.10;1.80;;;21.40;66.80;;;;;;6246497;27;87984;-70
2022/04/06 10:52:00;;;;;;;2.92;2.20;;;21.40;67.10;;;;;;6250138;27;88741;-70
2022/04/06 10:55:12;;;;;;;2.20;2.00;;;21.40;67.10;;;;;;6244050;27;87974;-69
2022/04/06 10:58:14;;;;;;;2.25;2.05;;;21.40;67.20;;;;;;6242762;27;89450;-69
2022/04/06 11:01:35;;;;;;;2.60;2.40;;;21.40;68.30;;;;;;6256147;27;89076;-69
2022/04/06 11:04:40;;;;;;;3.22;2.17;;;21.50;67.40;;;;;;6246437;27;89066;-69
2022/04/06 11:11:38;;;;;;;2.20;2.00;;;21.50;67.30;;;;;;6255641;27;88398;-69
2022/04/06 11:14:41;;;;;;;2.25;2.05;;;21.40;67.20;;;;;;6253750;27;89012;-69
2022/04/06 11:17:45;;;;;;;2.45;2.00;;;21.40;67.20;;;;;;6257391;27;90101;-69
2022/04/06 11:20:48;;;;;;;2.00;1.80;;;21.50;67.10;;;;;;6258412;27;89342;-69
2022/04/06 11:23:52;;;;;;;2.08;1.88;;;21.50;67.20;;;;;;6259690;27;89032;-69
2022/04/06 11:26:55;;;;;;;1.92;1.80;;;21.40;67.10;;;;;;6260962;27;88364;-69
2022/04/06 11:30:01;;;;;;;1.92;1.70;;;21.50;67.20;;;;;;6244239;27;91505;-70
2022/04/06 11:33:05;;;;;;;2.05;1.85;;;21.40;67.10;;;;;;6258283;27;89485;-69
2022/04/06 11:36:17;;;;;;;2.20;2.00;;;21.40;67.20;;;;;;6245939;27;89477;-69
2022/04/06 11:39:19;;;;;;;2.20;2.00;;;21.40;67.20;;;;;;6258562;28;88339;-68
2022/04/06 11:42:21;;;;;;;2.30;2.10;;;21.40;67.20;;;;;;6257744;27;89121;-69
2022/04/06 11:45:25;;;;;;;1.70;1.60;;;21.40;67.20;;;;;;6257644;27;89165;-70
2022/04/06 11:48:39;;;;;;;2.00;1.80;;;21.40;67.20;;;;;;6257141;28;89974;-69
2022/04/06 11:51:45;;;;;;;1.83;1.70;;;21.40;67.20;;;;;;6256451;27;89170;-69
2022/04/06 11:54:52;;;;;;;2.00;1.80;;;21.40;67.20;;;;;;6257334;27;88700;-70
2022/04/06 11:57:56;;;;;;;2.22;1.90;;;21.40;67.20;;;;;;6257216;27;89480;-69
2022/04/06 12:00:59;;;;;;;2.00;1.80;;;21.40;67.20;;;;;;6243204;27;87870;-70
2022/04/06 12:04:01;;;;;;;2.22;1.80;;;21.40;67.20;;;;;;6248210;27;89155;-69
2022/04/06 12:07:05;;;;;;;2.45;2.00;;;21.40;67.20;;;;;;6258370;27;87978;-69
2022/04/06 12:10:07;;;;;;;3.90;2.17;;;21.50;67.40;;;;;;6251440;27;87542;-69
2022/04/06 12:13:10;;;;;;;2.83;1.90;;;21.50;67.40;;;;;;6253249;28;89291;-69
2022/04/06 12:16:13;;;;;;;2.67;1.80;;;21.40;67.20;;;;;;6253432;27;89465;-68
2022/04/06 12:19:18;;;;;;;2.00;1.80;;;21.40;67.20;;;;;;6247169;27;88954;-69
2022/04/06 12:22:26;;;;;;;2.63;1.83;;;21.50;67.30;;;;;;6258929;27;89216;-69
2022/04/06 12:25:29;;;;;;;2.00;1.70;;;21.50;67.20;;;;;;6257485;27;88933;-68
2022/04/06 12:28:31;;;;;;;2.97;1.90;;;21.40;67.20;;;;;;6260421;27;89136;-69
2022/04/06 12:31:34;;;;;;;2.28;1.90;;;21.40;67.20;;;;;;6258418;27;89149;-69
2022/04/06 12:34:37;;;;;;;2.08;1.88;;;21.50;67.30;;;;;;6245633;27;89031;-69
2022/04/06 12:37:41;;;;;;;2.05;1.88;;;21.40;67.40;;;;;;6257999;27;87129;-70
2022/04/06 12:40:43;;;;;;;2.65;1.80;;;21.40;67.30;;;;;;6257048;27;88229;-69
2022/04/06 12:43:46;;;;;;;1.95;1.70;;;21.40;67.40;;;;;;6258622;28;89447;-68
2022/04/06 12:46:49;;;;;;;2.03;1.60;;;21.40;67.40;;;;;;6256778;27;89501;-69
2022/04/06 12:49:52;;;;;;;2.58;1.60;;;21.40;67.40;;;;;;6258416;27;89983;-68
2022/04/06 12:53:07;;;;;;;1.80;1.63;;;21.40;67.40;;;;;;6257111;27;87932;-69
2022/04/06 12:56:13;;;;;;;2.00;1.80;;;21.40;67.40;;;;;;6257724;27;87544;-69
2022/04/06 12:59:15;;;;;;;2.30;1.60;;;21.40;67.40;;;;;;6252620;27;89178;-69
2022/04/06 13:02:22;;;;;;;1.70;1.55;;;21.50;67.50;;;;;;6233952;27;88019;-69
2022/04/06 13:05:24;;;;;;;1.85;1.50;;;21.40;67.50;;;;;;6242180;27;88933;-69
2022/04/06 13:08:28;;;;;;;2.08;1.80;;;21.40;67.50;;;;;;6256349;27;89152;-69
2022/04/06 13:11:30;;;;;;;1.83;1.60;;;21.40;67.50;;;;;;6246523;28;88301;-69
2022/04/06 13:14:32;;;;;;;2.38;1.88;;;21.40;67.50;;;;;;6257914;28;88863;-68
2022/04/06 13:17:35;;;;;;;1.65;1.55;;;21.40;67.40;;;;;;6256046;27;89394;-69
2022/04/06 13:20:38;;;;;;;1.77;1.67;;;21.50;67.50;;;;;;6247555;27;90013;-69
2022/04/06 13:23:41;;;;;;;1.88;1.70;;;21.40;67.40;;;;;;6254662;27;89047;-69
2022/04/06 13:26:43;;;;;;;2.92;1.50;;;21.50;67.50;;;;;;6243076;27;88039;-69
2022/04/06 13:29:45;;;;;;;2.10;1.58;;;21.40;67.40;;;;;;6258092;27;89016;-68
2022/04/06 13:32:50;;;;;;;1.75;1.60;;;21.40;67.40;;;;;;6256537;27;87762;-69
2022/04/06 13:35:54;;;;;;;1.60;1.50;;;21.50;67.60;;;;;;6257961;27;89119;-68
2022/04/06 13:38:57;;;;;;;1.58;1.48;;;21.40;67.40;;;;;;6256335;27;89255;-69
2022/04/06 13:42:00;;;;;;;1.70;1.60;;;21.50;67.60;;;;;;6258655;27;88275;-69
2022/04/06 13:45:04;;;;;;;2.00;1.48;;;21.40;67.60;;;;;;6257445;27;88109;-69
2022/04/06 13:48:06;;;;;;;2.28;1.40;;;21.40;67.60;;;;;;6257749;27;88369;-69
2022/04/06 13:51:08;;;;;;;1.50;1.40;;;21.40;67.60;;;;;;6255353;27;89949;-69
2022/04/06 13:54:11;;;;;;;1.70;1.50;;;21.40;67.60;;;;;;6256849;27;89206;-69
2022/04/06 13:57:14;;;;;;;1.60;1.50;;;21.40;67.60;;;;;;6242856;27;89132;-69
2022/04/06 14:00:17;;;;;;;1.45;1.30;;;21.50;67.60;;;;;;6256792;27;89089;-69
2022/04/06 14:03:19;;;;;;;1.50;1.40;;;21.40;67.60;;;;;;6255500;28;89184;-69
2022/04/06 14:06:21;;;;;;;1.65;1.55;;;21.50;67.60;;;;;;6256350;27;88928;-70
2022/04/06 14:09:24;;;;;;;1.80;1.52;;;21.40;67.60;;;;;;6244055;28;89044;-69
2022/04/06 14:12:26;;;;;;;1.38;1.27;;;21.50;67.60;;;;;;6257036;27;87142;-69
2022/04/06 14:15:29;;;;;;;1.35;1.25;;;21.40;67.60;;;;;;6255407;28;88614;-69
2022/04/06 14:18:31;;;;;;;1.50;1.40;;;21.40;67.60;;;;;;6254600;27;89360;-69
2022/04/06 14:21:34;;;;;;;1.48;1.38;;;21.50;67.60;;;;;;6254357;27;88918;-69
2022/04/06 14:25:14;;;;;;;1.60;1.50;;;21.40;67.60;;;;;;6255872;27;89074;-69
2022/04/06 14:28:00;;;;;;;1.40;1.30;;;21.40;67.60;;;;;;6256210;27;89175;-69
2022/04/06 14:31:02;;;;;;;1.40;1.30;;;21.50;67.60;;;;;;6254370;27;88988;-69
2022/04/06 14:34:04;;;;;;;1.50;1.40;;;21.50;67.40;;;;;;6254352;27;89107;-68
2022/04/06 14:37:06;;;;;;;1.38;1.27;;;21.50;67.90;;;;;;6257561;27;89054;-69
2022/04/06 14:40:11;;;;;;;1.50;1.35;;;21.50;67.70;;;;;;6245738;27;89095;-69
2022/04/06 14:43:13;;;;;;;1.25;1.05;;;21.50;67.70;;;;;;6255436;27;88584;-69
2022/04/06 14:46:15;;;;;;;1.27;1.17;;;21.50;67.70;;;;;;6259882;27;89061;-69
2022/04/06 14:49:18;;;;;;;1.40;1.30;;;21.50;67.70;;;;;;6255522;27;89173;-70
2022/04/06 14:52:20;;;;;;;1.35;1.25;;;21.50;67.60;;;;;;6249152;27;90029;-70
2022/04/06 14:55:23;;;;;;;1.95;1.20;;;21.50;67.60;;;;;;6255690;28;89190;-70
2022/04/06 14:58:25;;;;;;;1.30;1.20;;;21.50;67.60;;;;;;6258810;28;89367;-69
2022/04/06 15:01:27;;;;;;;1.40;1.30;;;21.50;67.60;;;;;;6259421;28;89155;-69
2022/04/06 15:04:29;;;;;;;1.45;1.35;;;21.50;68.50;;;;;;6256957;27;89035;-70
2022/04/06 15:07:33;;;;;;;1.95;1.58;;;21.60;67.60;;;;;;6260388;27;90149;-69
2022/04/06 15:10:37;;;;;;;1.55;1.38;;;21.50;67.60;;;;;;6256663;28;87875;-70
2022/04/06 15:13:39;;;;;;;1.70;1.30;;;21.50;67.60;;;;;;6260561;27;87242;-69
2022/04/06 15:16:41;;;;;;;1.55;1.42;;;21.50;67.50;;;;;;6259732;27;87813;-69
2022/04/06 15:19:42;;;;;;;1.40;1.30;;;21.60;67.60;;;;;;6262988;27;89163;-70
2022/04/06 15:22:45;;;;;;;1.85;1.30;;;21.50;67.50;;;;;;6253412;27;90034;-69
2022/04/06 15:25:48;;;;;;;1.65;1.27;;;21.60;67.60;;;;;;6254792;27;89424;-70
2022/04/06 15:28:50;;;;;;;1.33;1.20;;;21.50;67.60;;;;;;6255937;27;87811;-70
2022/04/06 15:31:52;;;;;;;1.63;1.27;;;21.50;67.60;;;;;;6254756;27;89099;-70
2022/04/06 15:38:14;;;;;;;1.30;1.20;;;21.60;67.60;;;;;;6253666;28;87403;-68
2022/04/06 15:41:17;;;;;;;1.35;1.25;;;21.60;67.60;;;;;;6256245;27;88993;-70
2022/04/06 15:44:19;;;;;;;1.52;1.20;;;21.60;67.60;;;;;;6256708;27;88443;-69
2022/04/06 15:47:22;;;;;;;1.75;1.23;;;21.60;67.60;;;;;;6252486;27;89444;-70
2022/04/06 15:50:24;;;;;;;1.40;1.30;;;21.60;67.60;;;;;;6254989;27;87979;-70
2022/04/06 15:53:26;;;;;;;1.30;1.20;;;21.60;67.60;;;;;;6256351;27;89724;-70
2022/04/06 15:56:30;;;;;;;1.40;1.27;;;21.60;67.60;;;;;;6255636;27;89783;-72
2022/04/06 15:59:32;;;;;;;1.27;1.17;;;21.60;67.70;;;;;;6256242;27;89102;-71
2022/04/06 16:02:34;;;;;;;1.15;1.05;;;21.60;67.60;;;;;;6256279;27;89493;-72
2022/04/06 16:05:36;;;;;;;1.30;1.20;;;21.60;67.70;;;;;;6257942;27;89055;-72
2022/04/06 16:08:38;;;;;;;1.38;1.27;;;21.60;67.70;;;;;;6247438;27;89262;-72
2022/04/06 16:11:42;;;;;;;1.30;1.20;;;21.60;67.70;;;;;;6249635;27;89077;-70